sensor_id;sensor_type;location;lat;lon;timestamp;P1;durP1;ratioP1;P2;durP2;ratioP2
22711;SDS011;11523;50.390;8.072;2024-03-08T00:00:03;27.23;;;17.25;;
22711;SDS011;11523;50.390;8.072;2024-03-08T00:02:37;23.83;;;16.48;;
22711;SDS011;11523;50.390;8.072;2024-03-08T00:05:04;25.20;;;18.00;;
22711;SDS011;11523;50.390;8.072;2024-03-08T00:07:30;26.17;;;17.25;;
22711;SDS011;11523;50.390;8.072;2024-03-08T00:09:56;25.10;;;17.00;;
22711;SDS011;11523;50.390;8.072;2024-03-08T00:12:22;24.67;;;17.38;;
22711;SDS011;11523;50.390;8.072;2024-03-08T00:14:50;25.10;;;16.95;;
22711;SDS011;11523;50.390;8.072;2024-03-08T00:17:17;24.30;;;16.85;;
22711;SDS011;11523;50.390;8.072;2024-03-08T00:19:43;24.65;;;17.38;;
22711;SDS011;11523;50.390;8.072;2024-03-08T00:22:09;25.60;;;17.90;;
22711;SDS011;11523;50.390;8.072;2024-03-08T00:24:36;22.15;;;16.00;;
22711;SDS011;11523;50.390;8.072;2024-03-08T00:27:02;23.70;;;16.73;;
22711;SDS011;11523;50.390;8.072;2024-03-08T00:29:29;25.55;;;16.88;;
22711;SDS011;11523;50.390;8.072;2024-03-08T00:32:02;26.42;;;17.40;;
22711;SDS011;11523;50.390;8.072;2024-03-08T00:34:28;26.48;;;17.38;;
22711;SDS011;11523;50.390;8.072;2024-03-08T00:36:54;24.13;;;17.42;;
22711;SDS011;11523;50.390;8.072;2024-03-08T00:39:20;22.88;;;16.40;;
22711;SDS011;11523;50.390;8.072;2024-03-08T00:41:46;24.88;;;17.70;;
22711;SDS011;11523;50.390;8.072;2024-03-08T00:44:18;23.27;;;17.25;;
22711;SDS011;11523;50.390;8.072;2024-03-08T00:46:44;22.50;;;17.15;;
22711;SDS011;11523;50.390;8.072;2024-03-08T00:49:10;25.58;;;17.50;;
22711;SDS011;11523;50.390;8.072;2024-03-08T00:51:37;25.92;;;17.08;;
22711;SDS011;11523;50.390;8.072;2024-03-08T00:54:03;24.42;;;17.30;;
22711;SDS011;11523;50.390;8.072;2024-03-08T00:56:29;25.13;;;17.55;;
22711;SDS011;11523;50.390;8.072;2024-03-08T00:58:55;24.98;;;17.13;;
22711;SDS011;11523;50.390;8.072;2024-03-08T01:01:21;25.80;;;18.30;;
22711;SDS011;11523;50.390;8.072;2024-03-08T01:03:47;22.77;;;17.02;;
22711;SDS011;11523;50.390;8.072;2024-03-08T01:06:13;24.40;;;17.42;;
22711;SDS011;11523;50.390;8.072;2024-03-08T01:08:39;25.67;;;17.60;;
22711;SDS011;11523;50.390;8.072;2024-03-08T01:11:07;27.27;;;17.98;;
22711;SDS011;11523;50.390;8.072;2024-03-08T01:13:33;26.90;;;17.83;;
22711;SDS011;11523;50.390;8.072;2024-03-08T01:15:59;24.45;;;17.92;;
22711;SDS011;11523;50.390;8.072;2024-03-08T01:18:25;27.33;;;17.98;;
22711;SDS011;11523;50.390;8.072;2024-03-08T01:20:51;27.38;;;17.73;;
22711;SDS011;11523;50.390;8.072;2024-03-08T01:23:17;28.02;;;17.92;;
22711;SDS011;11523;50.390;8.072;2024-03-08T01:25:43;26.08;;;18.33;;
22711;SDS011;11523;50.390;8.072;2024-03-08T01:28:09;25.70;;;17.92;;
22711;SDS011;11523;50.390;8.072;2024-03-08T01:30:35;26.10;;;18.02;;
22711;SDS011;11523;50.390;8.072;2024-03-08T01:33:02;28.77;;;19.27;;
22711;SDS011;11523;50.390;8.072;2024-03-08T01:35:28;24.90;;;18.33;;
22711;SDS011;11523;50.390;8.072;2024-03-08T01:37:54;27.50;;;17.60;;
22711;SDS011;11523;50.390;8.072;2024-03-08T01:40:20;26.10;;;18.17;;
22711;SDS011;11523;50.390;8.072;2024-03-08T01:42:47;26.50;;;18.73;;
22711;SDS011;11523;50.390;8.072;2024-03-08T01:45:13;25.55;;;17.38;;
22711;SDS011;11523;50.390;8.072;2024-03-08T01:47:39;25.88;;;18.20;;
22711;SDS011;11523;50.390;8.072;2024-03-08T01:50:05;24.23;;;17.67;;
22711;SDS011;11523;50.390;8.072;2024-03-08T01:52:32;24.77;;;18.17;;
22711;SDS011;11523;50.390;8.072;2024-03-08T01:54:59;25.63;;;17.70;;
22711;SDS011;11523;50.390;8.072;2024-03-08T01:57:28;28.90;;;18.10;;
22711;SDS011;11523;50.390;8.072;2024-03-08T01:59:58;25.85;;;17.63;;
22711;SDS011;11523;50.390;8.072;2024-03-08T02:02:28;24.80;;;17.38;;
22711;SDS011;11523;50.390;8.072;2024-03-08T02:04:56;25.38;;;17.40;;
22711;SDS011;11523;50.390;8.072;2024-03-08T02:07:22;25.55;;;17.13;;
22711;SDS011;11523;50.390;8.072;2024-03-08T02:09:48;27.75;;;18.67;;
22711;SDS011;11523;50.390;8.072;2024-03-08T02:12:14;28.35;;;19.33;;
22711;SDS011;11523;50.390;8.072;2024-03-08T02:14:40;26.02;;;18.02;;
22711;SDS011;11523;50.390;8.072;2024-03-08T02:17:06;24.77;;;18.08;;
22711;SDS011;11523;50.390;8.072;2024-03-08T02:19:32;26.80;;;18.42;;
22711;SDS011;11523;50.390;8.072;2024-03-08T02:22:00;33.42;;;19.17;;
22711;SDS011;11523;50.390;8.072;2024-03-08T02:24:29;25.25;;;18.40;;
22711;SDS011;11523;50.390;8.072;2024-03-08T02:26:55;30.75;;;18.67;;
22711;SDS011;11523;50.390;8.072;2024-03-08T02:29:21;25.15;;;18.02;;
22711;SDS011;11523;50.390;8.072;2024-03-08T02:31:47;26.70;;;18.67;;
22711;SDS011;11523;50.390;8.072;2024-03-08T02:34:16;28.42;;;19.17;;
22711;SDS011;11523;50.390;8.072;2024-03-08T02:36:42;29.15;;;19.35;;
22711;SDS011;11523;50.390;8.072;2024-03-08T02:39:08;28.40;;;19.55;;
22711;SDS011;11523;50.390;8.072;2024-03-08T02:41:35;26.55;;;19.30;;
22711;SDS011;11523;50.390;8.072;2024-03-08T02:44:01;25.13;;;18.27;;
22711;SDS011;11523;50.390;8.072;2024-03-08T02:46:27;29.77;;;19.30;;
22711;SDS011;11523;50.390;8.072;2024-03-08T02:48:55;26.02;;;18.38;;
22711;SDS011;11523;50.390;8.072;2024-03-08T02:51:21;34.65;;;20.45;;
22711;SDS011;11523;50.390;8.072;2024-03-08T02:53:47;28.80;;;19.50;;
22711;SDS011;11523;50.390;8.072;2024-03-08T02:56:14;27.33;;;19.55;;
22711;SDS011;11523;50.390;8.072;2024-03-08T02:58:41;27.90;;;18.98;;
22711;SDS011;11523;50.390;8.072;2024-03-08T03:01:07;27.38;;;18.83;;
22711;SDS011;11523;50.390;8.072;2024-03-08T03:03:35;28.40;;;18.83;;
22711;SDS011;11523;50.390;8.072;2024-03-08T03:06:01;28.05;;;19.77;;
22711;SDS011;11523;50.390;8.072;2024-03-08T03:08:33;29.77;;;19.92;;
22711;SDS011;11523;50.390;8.072;2024-03-08T03:10:59;29.05;;;19.67;;
22711;SDS011;11523;50.390;8.072;2024-03-08T03:13:26;28.10;;;19.48;;
22711;SDS011;11523;50.390;8.072;2024-03-08T03:15:54;28.73;;;19.90;;
22711;SDS011;11523;50.390;8.072;2024-03-08T03:18:30;30.35;;;19.55;;
22711;SDS011;11523;50.390;8.072;2024-03-08T03:20:58;28.23;;;19.92;;
22711;SDS011;11523;50.390;8.072;2024-03-08T03:23:23;27.17;;;19.38;;
22711;SDS011;11523;50.390;8.072;2024-03-08T03:25:51;28.23;;;20.10;;
22711;SDS011;11523;50.390;8.072;2024-03-08T03:28:17;29.80;;;20.15;;
22711;SDS011;11523;50.390;8.072;2024-03-08T03:30:53;28.23;;;20.00;;
22711;SDS011;11523;50.390;8.072;2024-03-08T03:33:26;32.58;;;21.33;;
22711;SDS011;11523;50.390;8.072;2024-03-08T03:35:52;30.92;;;19.88;;
22711;SDS011;11523;50.390;8.072;2024-03-08T03:38:19;29.02;;;19.60;;
22711;SDS011;11523;50.390;8.072;2024-03-08T03:40:48;30.77;;;21.05;;
22711;SDS011;11523;50.390;8.072;2024-03-08T03:43:17;30.60;;;20.05;;
22711;SDS011;11523;50.390;8.072;2024-03-08T03:45:43;29.08;;;20.23;;
22711;SDS011;11523;50.390;8.072;2024-03-08T03:48:09;29.58;;;20.63;;
22711;SDS011;11523;50.390;8.072;2024-03-08T03:50:35;34.20;;;21.52;;
22711;SDS011;11523;50.390;8.072;2024-03-08T03:53:01;29.95;;;20.98;;
22711;SDS011;11523;50.390;8.072;2024-03-08T03:55:27;32.83;;;21.08;;
22711;SDS011;11523;50.390;8.072;2024-03-08T03:57:54;33.88;;;21.10;;
22711;SDS011;11523;50.390;8.072;2024-03-08T04:00:20;29.83;;;19.63;;
22711;SDS011;11523;50.390;8.072;2024-03-08T04:02:45;28.73;;;20.58;;
22711;SDS011;11523;50.390;8.072;2024-03-08T04:05:12;29.58;;;20.48;;
22711;SDS011;11523;50.390;8.072;2024-03-08T04:07:38;27.98;;;19.45;;
22711;SDS011;11523;50.390;8.072;2024-03-08T04:10:05;30.40;;;20.58;;
22711;SDS011;11523;50.390;8.072;2024-03-08T04:12:34;33.53;;;21.23;;
22711;SDS011;11523;50.390;8.072;2024-03-08T04:15:00;29.77;;;19.55;;
22711;SDS011;11523;50.390;8.072;2024-03-08T04:17:27;29.60;;;21.42;;
22711;SDS011;11523;50.390;8.072;2024-03-08T04:19:53;30.85;;;21.10;;
22711;SDS011;11523;50.390;8.072;2024-03-08T04:22:19;30.10;;;20.48;;
22711;SDS011;11523;50.390;8.072;2024-03-08T04:24:45;29.45;;;21.55;;
22711;SDS011;11523;50.390;8.072;2024-03-08T04:27:11;29.33;;;20.85;;
22711;SDS011;11523;50.390;8.072;2024-03-08T04:29:37;31.05;;;21.80;;
22711;SDS011;11523;50.390;8.072;2024-03-08T04:32:03;32.42;;;20.60;;
22711;SDS011;11523;50.390;8.072;2024-03-08T04:34:30;31.52;;;20.88;;
22711;SDS011;11523;50.390;8.072;2024-03-08T04:36:59;30.05;;;21.20;;
22711;SDS011;11523;50.390;8.072;2024-03-08T04:39:25;30.02;;;21.27;;
22711;SDS011;11523;50.390;8.072;2024-03-08T04:41:55;29.60;;;20.85;;
22711;SDS011;11523;50.390;8.072;2024-03-08T04:44:23;33.00;;;22.73;;
22711;SDS011;11523;50.390;8.072;2024-03-08T04:46:52;31.38;;;21.75;;
22711;SDS011;11523;50.390;8.072;2024-03-08T04:49:18;32.03;;;22.00;;
22711;SDS011;11523;50.390;8.072;2024-03-08T04:51:45;29.65;;;20.77;;
22711;SDS011;11523;50.390;8.072;2024-03-08T04:54:11;32.42;;;22.52;;
22711;SDS011;11523;50.390;8.072;2024-03-08T04:56:37;31.70;;;21.33;;
22711;SDS011;11523;50.390;8.072;2024-03-08T04:59:03;33.05;;;21.50;;
22711;SDS011;11523;50.390;8.072;2024-03-08T05:01:33;31.55;;;22.15;;
22711;SDS011;11523;50.390;8.072;2024-03-08T05:03:59;33.28;;;22.40;;
22711;SDS011;11523;50.390;8.072;2024-03-08T05:06:25;31.30;;;21.55;;
22711;SDS011;11523;50.390;8.072;2024-03-08T05:08:50;30.83;;;21.27;;
22711;SDS011;11523;50.390;8.072;2024-03-08T05:11:16;32.47;;;21.63;;
22711;SDS011;11523;50.390;8.072;2024-03-08T05:13:42;33.92;;;23.17;;
22711;SDS011;11523;50.390;8.072;2024-03-08T05:16:10;30.80;;;21.88;;
22711;SDS011;11523;50.390;8.072;2024-03-08T05:18:36;33.13;;;23.38;;
22711;SDS011;11523;50.390;8.072;2024-03-08T05:21:02;29.20;;;21.70;;
22711;SDS011;11523;50.390;8.072;2024-03-08T05:23:29;30.77;;;22.15;;
22711;SDS011;11523;50.390;8.072;2024-03-08T05:25:55;31.83;;;22.00;;
22711;SDS011;11523;50.390;8.072;2024-03-08T05:28:21;31.00;;;21.75;;
22711;SDS011;11523;50.390;8.072;2024-03-08T05:30:46;35.63;;;22.73;;
22711;SDS011;11523;50.390;8.072;2024-03-08T05:33:12;37.13;;;22.85;;
22711;SDS011;11523;50.390;8.072;2024-03-08T05:35:39;35.60;;;23.70;;
22711;SDS011;11523;50.390;8.072;2024-03-08T05:38:05;35.65;;;23.95;;
22711;SDS011;11523;50.390;8.072;2024-03-08T05:40:32;34.67;;;24.60;;
22711;SDS011;11523;50.390;8.072;2024-03-08T05:42:58;37.00;;;23.08;;
22711;SDS011;11523;50.390;8.072;2024-03-08T05:45:24;31.95;;;21.98;;
22711;SDS011;11523;50.390;8.072;2024-03-08T05:47:56;34.72;;;23.58;;
22711;SDS011;11523;50.390;8.072;2024-03-08T05:50:22;32.63;;;22.25;;
22711;SDS011;11523;50.390;8.072;2024-03-08T05:52:48;33.75;;;22.30;;
22711;SDS011;11523;50.390;8.072;2024-03-08T05:55:14;33.03;;;22.83;;
22711;SDS011;11523;50.390;8.072;2024-03-08T05:57:41;32.53;;;21.73;;
22711;SDS011;11523;50.390;8.072;2024-03-08T06:00:07;34.50;;;23.73;;
22711;SDS011;11523;50.390;8.072;2024-03-08T06:02:35;31.20;;;22.50;;
22711;SDS011;11523;50.390;8.072;2024-03-08T06:05:05;29.60;;;21.67;;
22711;SDS011;11523;50.390;8.072;2024-03-08T06:07:31;34.78;;;23.70;;
22711;SDS011;11523;50.390;8.072;2024-03-08T06:09:57;32.08;;;22.65;;
22711;SDS011;11523;50.390;8.072;2024-03-08T06:12:25;36.38;;;24.10;;
22711;SDS011;11523;50.390;8.072;2024-03-08T06:14:54;35.30;;;23.35;;
22711;SDS011;11523;50.390;8.072;2024-03-08T06:17:19;33.97;;;23.08;;
22711;SDS011;11523;50.390;8.072;2024-03-08T06:19:50;33.22;;;22.67;;
22711;SDS011;11523;50.390;8.072;2024-03-08T06:22:16;34.20;;;23.05;;
22711;SDS011;11523;50.390;8.072;2024-03-08T06:24:43;35.03;;;23.13;;
22711;SDS011;11523;50.390;8.072;2024-03-08T06:27:09;31.02;;;21.77;;
22711;SDS011;11523;50.390;8.072;2024-03-08T06:29:35;34.65;;;23.10;;
22711;SDS011;11523;50.390;8.072;2024-03-08T06:32:07;36.15;;;24.92;;
22711;SDS011;11523;50.390;8.072;2024-03-08T06:34:33;33.13;;;23.90;;
22711;SDS011;11523;50.390;8.072;2024-03-08T06:36:59;37.92;;;23.42;;
22711;SDS011;11523;50.390;8.072;2024-03-08T06:39:26;36.35;;;23.67;;
22711;SDS011;11523;50.390;8.072;2024-03-08T06:41:55;34.17;;;24.17;;
22711;SDS011;11523;50.390;8.072;2024-03-08T06:44:27;36.08;;;23.33;;
22711;SDS011;11523;50.390;8.072;2024-03-08T06:46:53;36.42;;;25.13;;
22711;SDS011;11523;50.390;8.072;2024-03-08T06:49:19;35.42;;;24.02;;
22711;SDS011;11523;50.390;8.072;2024-03-08T06:51:45;36.42;;;24.63;;
22711;SDS011;11523;50.390;8.072;2024-03-08T06:54:11;32.15;;;23.27;;
22711;SDS011;11523;50.390;8.072;2024-03-08T06:56:37;38.72;;;24.02;;
22711;SDS011;11523;50.390;8.072;2024-03-08T06:59:03;36.95;;;23.80;;
22711;SDS011;11523;50.390;8.072;2024-03-08T07:01:29;37.17;;;23.35;;
22711;SDS011;11523;50.390;8.072;2024-03-08T07:04:01;37.05;;;24.05;;
22711;SDS011;11523;50.390;8.072;2024-03-08T07:06:30;35.60;;;24.92;;
22711;SDS011;11523;50.390;8.072;2024-03-08T07:08:58;35.30;;;24.05;;
22711;SDS011;11523;50.390;8.072;2024-03-08T07:11:24;36.67;;;24.90;;
22711;SDS011;11523;50.390;8.072;2024-03-08T07:13:50;35.42;;;24.50;;
22711;SDS011;11523;50.390;8.072;2024-03-08T07:16:16;35.75;;;23.20;;
22711;SDS011;11523;50.390;8.072;2024-03-08T07:18:42;38.88;;;24.63;;
22711;SDS011;11523;50.390;8.072;2024-03-08T07:21:08;34.40;;;23.65;;
22711;SDS011;11523;50.390;8.072;2024-03-08T07:23:35;37.70;;;24.00;;
22711;SDS011;11523;50.390;8.072;2024-03-08T07:26:20;39.67;;;23.73;;
22711;SDS011;11523;50.390;8.072;2024-03-08T07:28:46;37.90;;;24.52;;
22711;SDS011;11523;50.390;8.072;2024-03-08T07:31:12;35.05;;;24.70;;
22711;SDS011;11523;50.390;8.072;2024-03-08T07:34:07;34.22;;;23.05;;
22711;SDS011;11523;50.390;8.072;2024-03-08T07:36:33;36.70;;;22.58;;
22711;SDS011;11523;50.390;8.072;2024-03-08T07:39:00;33.10;;;22.83;;
22711;SDS011;11523;50.390;8.072;2024-03-08T07:41:26;41.53;;;25.92;;
22711;SDS011;11523;50.390;8.072;2024-03-08T07:43:52;38.38;;;24.70;;
22711;SDS011;11523;50.390;8.072;2024-03-08T07:46:18;36.08;;;22.48;;
22711;SDS011;11523;50.390;8.072;2024-03-08T07:48:44;34.33;;;23.25;;
22711;SDS011;11523;50.390;8.072;2024-03-08T07:51:11;32.80;;;22.40;;
22711;SDS011;11523;50.390;8.072;2024-03-08T07:53:37;36.60;;;24.50;;
22711;SDS011;11523;50.390;8.072;2024-03-08T07:56:03;42.33;;;24.88;;
22711;SDS011;11523;50.390;8.072;2024-03-08T07:58:30;35.42;;;25.15;;
22711;SDS011;11523;50.390;8.072;2024-03-08T08:00:56;35.50;;;24.33;;
22711;SDS011;11523;50.390;8.072;2024-03-08T08:03:22;35.20;;;23.25;;
22711;SDS011;11523;50.390;8.072;2024-03-08T08:05:48;35.92;;;23.60;;
22711;SDS011;11523;50.390;8.072;2024-03-08T08:08:14;35.47;;;23.77;;
22711;SDS011;11523;50.390;8.072;2024-03-08T08:10:40;35.17;;;21.70;;
22711;SDS011;11523;50.390;8.072;2024-03-08T08:13:07;37.55;;;24.98;;
22711;SDS011;11523;50.390;8.072;2024-03-08T08:15:33;34.50;;;23.38;;
22711;SDS011;11523;50.390;8.072;2024-03-08T08:17:59;32.22;;;22.20;;
22711;SDS011;11523;50.390;8.072;2024-03-08T08:20:25;34.47;;;23.27;;
22711;SDS011;11523;50.390;8.072;2024-03-08T08:22:53;61.17;;;25.65;;
22711;SDS011;11523;50.390;8.072;2024-03-08T08:25:20;35.10;;;23.27;;
22711;SDS011;11523;50.390;8.072;2024-03-08T08:27:49;34.97;;;23.27;;
22711;SDS011;11523;50.390;8.072;2024-03-08T08:30:15;34.83;;;23.55;;
22711;SDS011;11523;50.390;8.072;2024-03-08T08:32:41;39.15;;;24.13;;
22711;SDS011;11523;50.390;8.072;2024-03-08T08:35:07;34.88;;;22.83;;
22711;SDS011;11523;50.390;8.072;2024-03-08T08:37:34;35.40;;;23.90;;
22711;SDS011;11523;50.390;8.072;2024-03-08T08:40:02;33.83;;;23.70;;
22711;SDS011;11523;50.390;8.072;2024-03-08T08:42:33;31.52;;;22.52;;
22711;SDS011;11523;50.390;8.072;2024-03-08T08:44:59;34.20;;;23.02;;
22711;SDS011;11523;50.390;8.072;2024-03-08T08:47:29;31.35;;;21.70;;
22711;SDS011;11523;50.390;8.072;2024-03-08T08:49:55;34.67;;;22.58;;
22711;SDS011;11523;50.390;8.072;2024-03-08T08:52:21;34.55;;;22.77;;
22711;SDS011;11523;50.390;8.072;2024-03-08T08:54:48;33.55;;;23.00;;
22711;SDS011;11523;50.390;8.072;2024-03-08T08:57:14;32.75;;;23.00;;
22711;SDS011;11523;50.390;8.072;2024-03-08T08:59:40;30.60;;;21.65;;
22711;SDS011;11523;50.390;8.072;2024-03-08T09:02:06;29.35;;;22.25;;
22711;SDS011;11523;50.390;8.072;2024-03-08T09:04:33;30.55;;;22.30;;
22711;SDS011;11523;50.390;8.072;2024-03-08T09:07:00;30.27;;;20.60;;
22711;SDS011;11523;50.390;8.072;2024-03-08T09:09:26;33.90;;;21.52;;
22711;SDS011;11523;50.390;8.072;2024-03-08T09:11:52;29.35;;;19.88;;
22711;SDS011;11523;50.390;8.072;2024-03-08T09:14:19;30.58;;;21.33;;
22711;SDS011;11523;50.390;8.072;2024-03-08T09:16:45;27.75;;;21.00;;
22711;SDS011;11523;50.390;8.072;2024-03-08T09:19:12;28.58;;;20.70;;
22711;SDS011;11523;50.390;8.072;2024-03-08T09:21:38;29.77;;;20.65;;
22711;SDS011;11523;50.390;8.072;2024-03-08T09:24:05;28.45;;;20.85;;
22711;SDS011;11523;50.390;8.072;2024-03-08T09:26:31;26.95;;;18.95;;
22711;SDS011;11523;50.390;8.072;2024-03-08T09:28:58;25.20;;;18.88;;
22711;SDS011;11523;50.390;8.072;2024-03-08T09:31:24;27.77;;;20.25;;
22711;SDS011;11523;50.390;8.072;2024-03-08T09:33:50;27.48;;;18.23;;
22711;SDS011;11523;50.390;8.072;2024-03-08T09:36:16;26.75;;;19.02;;
22711;SDS011;11523;50.390;8.072;2024-03-08T09:38:43;27.08;;;19.33;;
22711;SDS011;11523;50.390;8.072;2024-03-08T09:41:09;27.63;;;19.05;;
22711;SDS011;11523;50.390;8.072;2024-03-08T09:43:38;24.88;;;18.42;;
22711;SDS011;11523;50.390;8.072;2024-03-08T09:46:04;24.00;;;17.75;;
22711;SDS011;11523;50.390;8.072;2024-03-08T09:48:33;24.00;;;19.33;;
22711;SDS011;11523;50.390;8.072;2024-03-08T09:51:06;26.35;;;18.10;;
22711;SDS011;11523;50.390;8.072;2024-03-08T09:53:33;23.23;;;17.95;;
22711;SDS011;11523;50.390;8.072;2024-03-08T09:55:59;22.33;;;16.98;;
22711;SDS011;11523;50.390;8.072;2024-03-08T09:58:25;23.23;;;17.00;;
22711;SDS011;11523;50.390;8.072;2024-03-08T10:01:03;22.58;;;17.50;;
22711;SDS011;11523;50.390;8.072;2024-03-08T10:03:29;23.70;;;16.08;;
22711;SDS011;11523;50.390;8.072;2024-03-08T10:05:57;23.52;;;16.55;;
22711;SDS011;11523;50.390;8.072;2024-03-08T10:08:25;22.60;;;16.55;;
22711;SDS011;11523;50.390;8.072;2024-03-08T10:10:52;22.58;;;15.68;;
22711;SDS011;11523;50.390;8.072;2024-03-08T10:13:18;19.10;;;15.25;;
22711;SDS011;11523;50.390;8.072;2024-03-08T10:15:44;21.95;;;16.05;;
22711;SDS011;11523;50.390;8.072;2024-03-08T10:18:11;20.80;;;17.20;;
22711;SDS011;11523;50.390;8.072;2024-03-08T10:20:37;20.05;;;15.43;;
22711;SDS011;11523;50.390;8.072;2024-03-08T10:23:03;21.88;;;16.55;;
22711;SDS011;11523;50.390;8.072;2024-03-08T10:25:30;18.60;;;15.32;;
22711;SDS011;11523;50.390;8.072;2024-03-08T10:27:56;19.23;;;14.48;;
22711;SDS011;11523;50.390;8.072;2024-03-08T10:30:22;19.00;;;15.55;;
22711;SDS011;11523;50.390;8.072;2024-03-08T10:32:48;21.98;;;14.77;;
22711;SDS011;11523;50.390;8.072;2024-03-08T10:35:14;18.65;;;15.30;;
22711;SDS011;11523;50.390;8.072;2024-03-08T10:37:45;19.30;;;15.43;;
22711;SDS011;11523;50.390;8.072;2024-03-08T10:40:17;21.33;;;15.13;;
22711;SDS011;11523;50.390;8.072;2024-03-08T10:42:51;19.90;;;15.45;;
22711;SDS011;11523;50.390;8.072;2024-03-08T10:47:49;20.27;;;14.52;;
22711;SDS011;11523;50.390;8.072;2024-03-08T10:50:23;19.13;;;14.93;;
22711;SDS011;11523;50.390;8.072;2024-03-08T10:52:50;18.85;;;13.85;;
22711;SDS011;11523;50.390;8.072;2024-03-08T10:55:19;16.92;;;14.45;;
22711;SDS011;11523;50.390;8.072;2024-03-08T10:57:46;17.38;;;13.52;;
22711;SDS011;11523;50.390;8.072;2024-03-08T11:00:16;18.00;;;13.52;;
22711;SDS011;11523;50.390;8.072;2024-03-08T11:02:44;17.30;;;13.43;;
22711;SDS011;11523;50.390;8.072;2024-03-08T11:05:10;17.73;;;14.65;;
22711;SDS011;11523;50.390;8.072;2024-03-08T11:07:40;17.27;;;14.68;;
22711;SDS011;11523;50.390;8.072;2024-03-08T11:10:07;16.27;;;14.50;;
22711;SDS011;11523;50.390;8.072;2024-03-08T11:12:38;15.90;;;13.32;;
22711;SDS011;11523;50.390;8.072;2024-03-08T11:15:11;19.13;;;14.02;;
22711;SDS011;11523;50.390;8.072;2024-03-08T11:17:47;18.63;;;15.02;;
22711;SDS011;11523;50.390;8.072;2024-03-08T11:20:17;17.77;;;14.95;;
22711;SDS011;11523;50.390;8.072;2024-03-08T11:22:48;18.08;;;13.38;;
22711;SDS011;11523;50.390;8.072;2024-03-08T11:30:33;16.20;;;13.95;;
22711;SDS011;11523;50.390;8.072;2024-03-08T11:33:02;13.43;;;12.02;;
22711;SDS011;11523;50.390;8.072;2024-03-08T11:35:28;15.93;;;13.35;;
22711;SDS011;11523;50.390;8.072;2024-03-08T11:37:54;15.15;;;12.75;;
22711;SDS011;11523;50.390;8.072;2024-03-08T11:40:25;15.10;;;13.60;;
22711;SDS011;11523;50.390;8.072;2024-03-08T11:42:52;16.35;;;13.00;;
22711;SDS011;11523;50.390;8.072;2024-03-08T11:45:18;14.98;;;12.60;;
22711;SDS011;11523;50.390;8.072;2024-03-08T11:47:46;15.20;;;13.27;;
22711;SDS011;11523;50.390;8.072;2024-03-08T11:50:12;15.40;;;13.25;;
22711;SDS011;11523;50.390;8.072;2024-03-08T11:52:39;15.50;;;13.05;;
22711;SDS011;11523;50.390;8.072;2024-03-08T11:55:05;15.30;;;13.70;;
22711;SDS011;11523;50.390;8.072;2024-03-08T11:57:31;16.05;;;12.93;;
22711;SDS011;11523;50.390;8.072;2024-03-08T11:59:57;14.68;;;13.07;;
22711;SDS011;11523;50.390;8.072;2024-03-08T12:02:30;16.25;;;13.60;;
22711;SDS011;11523;50.390;8.072;2024-03-08T12:04:59;16.23;;;13.27;;
22711;SDS011;11523;50.390;8.072;2024-03-08T12:07:28;15.98;;;12.93;;
22711;SDS011;11523;50.390;8.072;2024-03-08T12:12:42;17.60;;;13.20;;
22711;SDS011;11523;50.390;8.072;2024-03-08T12:15:08;15.23;;;13.63;;
22711;SDS011;11523;50.390;8.072;2024-03-08T12:17:40;13.82;;;12.38;;
22711;SDS011;11523;50.390;8.072;2024-03-08T12:20:22;13.73;;;11.55;;
22711;SDS011;11523;50.390;8.072;2024-03-08T12:22:50;15.60;;;11.88;;
22711;SDS011;11523;50.390;8.072;2024-03-08T12:25:18;13.10;;;11.70;;
22711;SDS011;11523;50.390;8.072;2024-03-08T12:27:45;14.20;;;12.20;;
22711;SDS011;11523;50.390;8.072;2024-03-08T12:30:18;12.90;;;11.50;;
22711;SDS011;11523;50.390;8.072;2024-03-08T12:35:19;13.68;;;11.98;;
22711;SDS011;11523;50.390;8.072;2024-03-08T12:37:47;13.55;;;12.02;;
22711;SDS011;11523;50.390;8.072;2024-03-08T12:40:14;15.80;;;12.40;;
22711;SDS011;11523;50.390;8.072;2024-03-08T12:42:41;13.55;;;12.15;;
22711;SDS011;11523;50.390;8.072;2024-03-08T12:45:08;13.77;;;11.60;;
22711;SDS011;11523;50.390;8.072;2024-03-08T12:47:35;14.77;;;11.55;;
22711;SDS011;11523;50.390;8.072;2024-03-08T12:50:01;12.88;;;11.48;;
22711;SDS011;11523;50.390;8.072;2024-03-08T12:52:28;12.82;;;11.50;;
22711;SDS011;11523;50.390;8.072;2024-03-08T12:54:55;13.82;;;11.30;;
22711;SDS011;11523;50.390;8.072;2024-03-08T12:57:21;16.35;;;11.95;;
22711;SDS011;11523;50.390;8.072;2024-03-08T12:59:47;14.15;;;11.85;;
22711;SDS011;11523;50.390;8.072;2024-03-08T13:02:14;13.23;;;11.68;;
22711;SDS011;11523;50.390;8.072;2024-03-08T13:04:41;13.57;;;11.75;;
22711;SDS011;11523;50.390;8.072;2024-03-08T13:07:07;12.77;;;11.45;;
22711;SDS011;11523;50.390;8.072;2024-03-08T13:09:33;14.05;;;12.05;;
22711;SDS011;11523;50.390;8.072;2024-03-08T13:12:02;12.95;;;11.40;;
22711;SDS011;11523;50.390;8.072;2024-03-08T13:14:28;14.23;;;12.35;;
22711;SDS011;11523;50.390;8.072;2024-03-08T13:16:56;15.02;;;12.23;;
22711;SDS011;11523;50.390;8.072;2024-03-08T13:19:24;14.90;;;12.73;;
22711;SDS011;11523;50.390;8.072;2024-03-08T13:21:50;13.95;;;12.13;;
22711;SDS011;11523;50.390;8.072;2024-03-08T13:24:16;14.27;;;12.63;;
22711;SDS011;11523;50.390;8.072;2024-03-08T13:26:43;14.40;;;12.73;;
22711;SDS011;11523;50.390;8.072;2024-03-08T13:29:10;14.18;;;12.50;;
22711;SDS011;11523;50.390;8.072;2024-03-08T13:31:36;13.93;;;12.35;;
22711;SDS011;11523;50.390;8.072;2024-03-08T13:34:02;14.50;;;13.00;;
22711;SDS011;11523;50.390;8.072;2024-03-08T13:36:30;16.02;;;12.95;;
22711;SDS011;11523;50.390;8.072;2024-03-08T13:39:04;14.30;;;11.90;;
22711;SDS011;11523;50.390;8.072;2024-03-08T13:41:39;13.60;;;12.18;;
22711;SDS011;11523;50.390;8.072;2024-03-08T13:44:06;14.90;;;12.50;;
22711;SDS011;11523;50.390;8.072;2024-03-08T13:46:32;16.15;;;12.77;;
22711;SDS011;11523;50.390;8.072;2024-03-08T13:49:03;16.55;;;12.43;;
22711;SDS011;11523;50.390;8.072;2024-03-08T13:51:31;14.95;;;12.75;;
22711;SDS011;11523;50.390;8.072;2024-03-08T13:53:57;15.25;;;12.43;;
22711;SDS011;11523;50.390;8.072;2024-03-08T13:56:23;15.05;;;12.07;;
22711;SDS011;11523;50.390;8.072;2024-03-08T13:58:49;14.82;;;13.32;;
22711;SDS011;11523;50.390;8.072;2024-03-08T14:01:15;14.15;;;12.63;;
22711;SDS011;11523;50.390;8.072;2024-03-08T14:03:41;13.77;;;12.38;;
22711;SDS011;11523;50.390;8.072;2024-03-08T14:06:08;14.95;;;13.02;;
22711;SDS011;11523;50.390;8.072;2024-03-08T14:08:34;14.65;;;12.82;;
22711;SDS011;11523;50.390;8.072;2024-03-08T14:11:03;14.30;;;12.90;;
22711;SDS011;11523;50.390;8.072;2024-03-08T14:16:11;14.60;;;12.32;;
22711;SDS011;11523;50.390;8.072;2024-03-08T14:18:38;13.20;;;11.85;;
22711;SDS011;11523;50.390;8.072;2024-03-08T14:21:04;14.63;;;13.13;;
22711;SDS011;11523;50.390;8.072;2024-03-08T14:23:33;14.80;;;12.90;;
22711;SDS011;11523;50.390;8.072;2024-03-08T14:25:59;14.35;;;12.77;;
22711;SDS011;11523;50.390;8.072;2024-03-08T14:28:25;14.18;;;12.30;;
22711;SDS011;11523;50.390;8.072;2024-03-08T14:30:54;14.57;;;12.98;;
22711;SDS011;11523;50.390;8.072;2024-03-08T14:33:20;14.32;;;12.80;;
22711;SDS011;11523;50.390;8.072;2024-03-08T14:35:46;14.75;;;13.23;;